sensor_id;sensor_type;location;lat;lon;timestamp;pressure;altitude;pressure_sealevel;temperature;humidity
10832;BME280;5469;48.574;8.768;2022-09-03T00:00:08;94526.19;;;19.65;55.44
10832;BME280;5469;48.574;8.768;2022-09-03T00:02:44;94523.84;;;19.64;55.26
10832;BME280;5469;48.574;8.768;2022-09-03T00:05:22;94523.06;;;19.51;55.08
10832;BME280;5469;48.574;8.768;2022-09-03T00:08:02;94512.88;;;19.45;54.91
10832;BME280;5469;48.574;8.768;2022-09-03T00:10:44;94516.66;;;19.56;55.04
10832;BME280;5469;48.574;8.768;2022-09-03T00:13:23;94530.44;;;19.30;55.58
10832;BME280;5469;48.574;8.768;2022-09-03T00:16:00;94519.22;;;19.15;56.02
10832;BME280;5469;48.574;8.768;2022-09-03T00:18:40;94520.00;;;19.16;55.74
10832;BME280;5469;48.574;8.768;2022-09-03T00:21:17;94513.19;;;19.18;55.44
10832;BME280;5469;48.574;8.768;2022-09-03T00:23:55;94519.97;;;19.04;56.00
10832;BME280;5469;48.574;8.768;2022-09-03T00:26:33;94517.63;;;18.90;56.33
10832;BME280;5469;48.574;8.768;2022-09-03T00:29:12;94519.34;;;18.73;57.18
10832;BME280;5469;48.574;8.768;2022-09-03T00:31:50;94521.84;;;18.79;56.93
10832;BME280;5469;48.574;8.768;2022-09-03T00:34:29;94534.81;;;18.76;57.17
10832;BME280;5469;48.574;8.768;2022-09-03T00:37:03;94539.81;;;18.45;58.92
10832;BME280;5469;48.574;8.768;2022-09-03T00:39:36;94535.19;;;18.66;58.96
10832;BME280;5469;48.574;8.768;2022-09-03T00:42:34;94537.81;;;18.54;58.89
10832;BME280;5469;48.574;8.768;2022-09-03T00:45:24;94533.38;;;18.58;59.29
10832;BME280;5469;48.574;8.768;2022-09-03T00:48:08;94522.72;;;18.83;58.19
10832;BME280;5469;48.574;8.768;2022-09-03T00:50:58;94524.53;;;18.91;57.85
10832;BME280;5469;48.574;8.768;2022-09-03T00:53:41;94521.53;;;18.92;58.58
10832;BME280;5469;48.574;8.768;2022-09-03T00:56:24;94518.53;;;18.94;59.56
10832;BME280;5469;48.574;8.768;2022-09-03T00:59:13;94520.34;;;19.27;56.66
10832;BME280;5469;48.574;8.768;2022-09-03T01:02:02;94510.63;;;19.10;59.08
10832;BME280;5469;48.574;8.768;2022-09-03T01:04:48;94513.16;;;19.06;57.91
10832;BME280;5469;48.574;8.768;2022-09-03T01:07:34;94521.88;;;19.03;57.50
10832;BME280;5469;48.574;8.768;2022-09-03T01:10:25;94519.88;;;19.00;60.14
10832;BME280;5469;48.574;8.768;2022-09-03T01:13:08;94525.38;;;18.70;62.25
10832;BME280;5469;48.574;8.768;2022-09-03T01:15:52;94524.13;;;19.01;60.42
10832;BME280;5469;48.574;8.768;2022-09-03T01:18:34;94515.00;;;19.39;56.96
10832;BME280;5469;48.574;8.768;2022-09-03T01:24:24;94520.06;;;19.40;58.61
10832;BME280;5469;48.574;8.768;2022-09-03T01:27:17;94518.13;;;19.41;57.01
10832;BME280;5469;48.574;8.768;2022-09-03T01:30:00;94523.47;;;19.16;59.94
10832;BME280;5469;48.574;8.768;2022-09-03T01:32:41;94526.50;;;19.15;59.57
10832;BME280;5469;48.574;8.768;2022-09-03T01:35:22;94521.88;;;19.03;61.27
10832;BME280;5469;48.574;8.768;2022-09-03T01:38:12;94524.97;;;18.81;61.91
10832;BME280;5469;48.574;8.768;2022-09-03T01:40:55;94521.06;;;18.57;62.98
10832;BME280;5469;48.574;8.768;2022-09-03T01:44:01;94529.44;;;18.76;61.65
10832;BME280;5469;48.574;8.768;2022-09-03T01:46:45;94528.50;;;18.72;62.47
10832;BME280;5469;48.574;8.768;2022-09-03T01:49:27;94525.34;;;18.91;60.67
10832;BME280;5469;48.574;8.768;2022-09-03T01:52:13;94526.94;;;18.71;62.50
10832;BME280;5469;48.574;8.768;2022-09-03T01:55:00;94518.63;;;18.64;62.61
10832;BME280;5469;48.574;8.768;2022-09-03T01:57:42;94523.78;;;18.69;61.96
10832;BME280;5469;48.574;8.768;2022-09-03T02:00:21;94526.00;;;18.67;62.45
10832;BME280;5469;48.574;8.768;2022-09-03T02:03:03;94529.56;;;18.59;62.76
10832;BME280;5469;48.574;8.768;2022-09-03T02:05:39;94526.84;;;19.13;59.50
10832;BME280;5469;48.574;8.768;2022-09-03T02:08:16;94522.81;;;19.07;59.80
10832;BME280;5469;48.574;8.768;2022-09-03T02:10:54;94516.56;;;19.40;56.41
10832;BME280;5469;48.574;8.768;2022-09-03T02:13:37;94520.91;;;18.74;61.04
10832;BME280;5469;48.574;8.768;2022-09-03T02:16:16;94515.84;;;19.06;58.41
10832;BME280;5469;48.574;8.768;2022-09-03T02:18:58;94509.84;;;19.34;56.10
10832;BME280;5469;48.574;8.768;2022-09-03T02:21:36;94509.59;;;19.27;58.85
10832;BME280;5469;48.574;8.768;2022-09-03T02:24:12;94509.59;;;19.27;56.93
10832;BME280;5469;48.574;8.768;2022-09-03T02:26:47;94505.94;;;19.31;55.84
10832;BME280;5469;48.574;8.768;2022-09-03T02:29:23;94504.69;;;19.04;57.48
10832;BME280;5469;48.574;8.768;2022-09-03T02:31:59;94513.19;;;19.18;58.03
10832;BME280;5469;48.574;8.768;2022-09-03T02:34:36;94524.25;;;19.05;58.44
10832;BME280;5469;48.574;8.768;2022-09-03T02:37:16;94525.25;;;19.00;57.55
10832;BME280;5469;48.574;8.768;2022-09-03T02:39:52;94528.34;;;18.90;59.33
10832;BME280;5469;48.574;8.768;2022-09-03T02:42:28;94531.00;;;18.77;60.33
10832;BME280;5469;48.574;8.768;2022-09-03T02:45:09;94529.00;;;18.53;61.53
10832;BME280;5469;48.574;8.768;2022-09-03T02:47:50;94535.66;;;18.68;60.63
10832;BME280;5469;48.574;8.768;2022-09-03T02:50:27;94530.34;;;18.60;61.31
10832;BME280;5469;48.574;8.768;2022-09-03T02:53:02;94533.69;;;18.56;61.05
10832;BME280;5469;48.574;8.768;2022-09-03T02:55:37;94518.28;;;18.32;63.54
10832;BME280;5469;48.574;8.768;2022-09-03T02:58:13;94523.97;;;18.10;66.54
10832;BME280;5469;48.574;8.768;2022-09-03T03:00:48;94524.25;;;18.17;65.40
10832;BME280;5469;48.574;8.768;2022-09-03T03:03:23;94517.72;;;18.06;66.98
10832;BME280;5469;48.574;8.768;2022-09-03T03:06:03;94521.50;;;18.05;66.77
10832;BME280;5469;48.574;8.768;2022-09-03T03:08:39;94512.97;;;18.03;66.32
10832;BME280;5469;48.574;8.768;2022-09-03T03:11:14;94519.91;;;17.83;68.57
10832;BME280;5469;48.574;8.768;2022-09-03T03:13:50;94514.50;;;17.62;69.52
10832;BME280;5469;48.574;8.768;2022-09-03T03:16:25;94513.97;;;17.68;69.35
10832;BME280;5469;48.574;8.768;2022-09-03T03:19:01;94517.38;;;17.78;67.97
10832;BME280;5469;48.574;8.768;2022-09-03T03:21:37;94517.81;;;17.88;68.42
10832;BME280;5469;48.574;8.768;2022-09-03T03:24:12;94519.53;;;17.93;68.14
10832;BME280;5469;48.574;8.768;2022-09-03T03:26:47;94518.53;;;17.98;66.10
10832;BME280;5469;48.574;8.768;2022-09-03T03:29:23;94514.69;;;17.57;69.74
10832;BME280;5469;48.574;8.768;2022-09-03T03:31:59;94518.91;;;17.28;72.15
10832;BME280;5469;48.574;8.768;2022-09-03T03:34:33;94525.00;;;17.37;71.70
10832;BME280;5469;48.574;8.768;2022-09-03T03:37:10;94523.31;;;17.24;72.94
10832;BME280;5469;48.574;8.768;2022-09-03T03:39:45;94533.31;;;17.15;73.85
10832;BME280;5469;48.574;8.768;2022-09-03T03:42:21;94529.16;;;17.26;73.45
10832;BME280;5469;48.574;8.768;2022-09-03T03:44:55;94531.88;;;17.09;74.54
10832;BME280;5469;48.574;8.768;2022-09-03T03:47:31;94536.34;;;17.05;75.16
10832;BME280;5469;48.574;8.768;2022-09-03T03:50:08;94545.16;;;16.96;76.16
10832;BME280;5469;48.574;8.768;2022-09-03T03:52:45;94548.47;;;16.93;76.21
10832;BME280;5469;48.574;8.768;2022-09-03T03:55:21;94546.53;;;17.11;76.38
10832;BME280;5469;48.574;8.768;2022-09-03T03:57:57;94537.59;;;17.07;75.92
10832;BME280;5469;48.574;8.768;2022-09-03T04:00:32;94539.44;;;17.07;76.95
10832;BME280;5469;48.574;8.768;2022-09-03T04:03:11;94538.19;;;17.13;76.81
10832;BME280;5469;48.574;8.768;2022-09-03T04:05:57;94545.91;;;17.06;77.13
10832;BME280;5469;48.574;8.768;2022-09-03T04:08:38;94542.72;;;17.21;76.63
10832;BME280;5469;48.574;8.768;2022-09-03T04:11:15;94540.44;;;17.40;75.58
10832;BME280;5469;48.574;8.768;2022-09-03T04:13:51;94538.66;;;17.15;77.44
10832;BME280;5469;48.574;8.768;2022-09-03T04:16:28;94538.56;;;17.32;75.87
10832;BME280;5469;48.574;8.768;2022-09-03T04:19:06;94528.50;;;17.29;77.07
10832;BME280;5469;48.574;8.768;2022-09-03T04:21:41;94534.16;;;17.36;76.00
10832;BME280;5469;48.574;8.768;2022-09-03T04:24:18;94524.81;;;17.42;75.75
10832;BME280;5469;48.574;8.768;2022-09-03T04:26:54;94531.59;;;17.49;75.36
10832;BME280;5469;48.574;8.768;2022-09-03T04:29:29;94519.69;;;17.58;74.40
10832;BME280;5469;48.574;8.768;2022-09-03T04:32:05;94515.31;;;17.54;74.89
10832;BME280;5469;48.574;8.768;2022-09-03T04:34:58;94521.13;;;17.56;74.49
10832;BME280;5469;48.574;8.768;2022-09-03T04:37:34;94522.34;;;17.67;73.76
10832;BME280;5469;48.574;8.768;2022-09-03T04:40:12;94520.28;;;17.64;74.28
10832;BME280;5469;48.574;8.768;2022-09-03T04:42:47;94524.22;;;17.66;73.96
10832;BME280;5469;48.574;8.768;2022-09-03T04:45:22;94530.19;;;17.72;73.44
10832;BME280;5469;48.574;8.768;2022-09-03T04:47:57;94537.50;;;17.63;74.71
10832;BME280;5469;48.574;8.768;2022-09-03T04:50:33;94527.09;;;17.61;74.20
10832;BME280;5469;48.574;8.768;2022-09-03T04:53:09;94532.59;;;17.95;71.04
10832;BME280;5469;48.574;8.768;2022-09-03T04:55:46;94537.44;;;18.01;69.99
10832;BME280;5469;48.574;8.768;2022-09-03T04:58:21;94539.00;;;18.23;68.07
10832;BME280;5469;48.574;8.768;2022-09-03T05:00:56;94543.06;;;17.87;72.30
10832;BME280;5469;48.574;8.768;2022-09-03T05:03:31;94541.66;;;18.11;70.50
10832;BME280;5469;48.574;8.768;2022-09-03T05:06:07;94543.69;;;18.14;70.32
10832;BME280;5469;48.574;8.768;2022-09-03T05:08:46;94540.91;;;18.02;70.85
10832;BME280;5469;48.574;8.768;2022-09-03T05:11:23;94541.66;;;17.81;72.48
10832;BME280;5469;48.574;8.768;2022-09-03T05:13:59;94534.69;;;17.89;71.94
10832;BME280;5469;48.574;8.768;2022-09-03T05:16:34;94531.31;;;18.01;69.60
10832;BME280;5469;48.574;8.768;2022-09-03T05:19:09;94536.00;;;18.04;69.57
10832;BME280;5469;48.574;8.768;2022-09-03T05:21:45;94537.75;;;18.00;69.81
10832;BME280;5469;48.574;8.768;2022-09-03T05:24:20;94540.63;;;17.95;70.80
10832;BME280;5469;48.574;8.768;2022-09-03T05:26:56;94535.75;;;18.18;68.58
10832;BME280;5469;48.574;8.768;2022-09-03T05:29:31;94542.94;;;18.26;67.15
10832;BME280;5469;48.574;8.768;2022-09-03T05:32:06;94548.31;;;18.05;69.84
10832;BME280;5469;48.574;8.768;2022-09-03T05:34:41;94545.94;;;17.82;72.45
10832;BME280;5469;48.574;8.768;2022-09-03T05:37:16;94545.28;;;17.85;71.69
10832;BME280;5469;48.574;8.768;2022-09-03T05:39:51;94552.72;;;17.80;72.28
10832;BME280;5469;48.574;8.768;2022-09-03T05:42:27;94549.88;;;18.06;71.21
10832;BME280;5469;48.574;8.768;2022-09-03T05:45:04;94554.59;;;17.79;72.34
10832;BME280;5469;48.574;8.768;2022-09-03T05:47:42;94549.88;;;17.76;72.75
10832;BME280;5469;48.574;8.768;2022-09-03T05:50:17;94556.31;;;17.84;72.29
10832;BME280;5469;48.574;8.768;2022-09-03T05:52:54;94557.75;;;17.81;73.19
10832;BME280;5469;48.574;8.768;2022-09-03T05:55:29;94556.72;;;17.65;75.18
10832;BME280;5469;48.574;8.768;2022-09-03T05:58:06;94554.75;;;17.74;74.84
10832;BME280;5469;48.574;8.768;2022-09-03T06:00:41;94562.47;;;17.84;74.30
10832;BME280;5469;48.574;8.768;2022-09-03T06:03:16;94564.41;;;17.66;76.85
10832;BME280;5469;48.574;8.768;2022-09-03T06:05:52;94559.97;;;17.79;76.14
10832;BME280;5469;48.574;8.768;2022-09-03T06:08:27;94560.59;;;17.85;75.83
10832;BME280;5469;48.574;8.768;2022-09-03T06:11:03;94563.41;;;17.88;75.07
10832;BME280;5469;48.574;8.768;2022-09-03T06:13:39;94560.50;;;17.64;76.98
10832;BME280;5469;48.574;8.768;2022-09-03T06:16:15;94568.16;;;17.74;75.82
10832;BME280;5469;48.574;8.768;2022-09-03T06:18:50;94564.59;;;18.00;74.73
10832;BME280;5469;48.574;8.768;2022-09-03T06:21:26;94563.47;;;17.80;76.24
10832;BME280;5469;48.574;8.768;2022-09-03T06:24:01;94569.97;;;17.61;77.52
10832;BME280;5469;48.574;8.768;2022-09-03T06:26:36;94564.50;;;17.87;75.78
10832;BME280;5469;48.574;8.768;2022-09-03T06:29:14;94565.03;;;18.02;74.83
10832;BME280;5469;48.574;8.768;2022-09-03T06:31:50;94563.50;;;18.01;75.20
10832;BME280;5469;48.574;8.768;2022-09-03T06:34:25;94569.41;;;17.77;76.78
10832;BME280;5469;48.574;8.768;2022-09-03T06:37:01;94556.16;;;18.10;74.55
10832;BME280;5469;48.574;8.768;2022-09-03T06:39:36;94559.81;;;18.05;75.84
10832;BME280;5469;48.574;8.768;2022-09-03T06:42:10;94556.34;;;18.05;75.22
10832;BME280;5469;48.574;8.768;2022-09-03T06:44:47;94550.50;;;18.03;75.16
10832;BME280;5469;48.574;8.768;2022-09-03T06:47:23;94561.25;;;18.03;75.83
10832;BME280;5469;48.574;8.768;2022-09-03T06:49:58;94556.81;;;18.07;74.82
10832;BME280;5469;48.574;8.768;2022-09-03T06:52:34;94554.84;;;17.95;76.44
10832;BME280;5469;48.574;8.768;2022-09-03T06:55:10;94554.03;;;17.95;76.94
10832;BME280;5469;48.574;8.768;2022-09-03T06:57:45;94547.88;;;18.24;75.29
10832;BME280;5469;48.574;8.768;2022-09-03T07:00:22;94550.00;;;18.30;75.11
10832;BME280;5469;48.574;8.768;2022-09-03T07:02:57;94553.81;;;18.29;75.06
10832;BME280;5469;48.574;8.768;2022-09-03T07:05:32;94553.16;;;18.32;74.90
10832;BME280;5469;48.574;8.768;2022-09-03T07:08:07;94560.63;;;18.06;75.37
10832;BME280;5469;48.574;8.768;2022-09-03T07:10:47;94561.91;;;18.42;74.86
10832;BME280;5469;48.574;8.768;2022-09-03T07:13:23;94563.22;;;18.36;74.85
10832;BME280;5469;48.574;8.768;2022-09-03T07:16:02;94572.00;;;18.45;74.13
10832;BME280;5469;48.574;8.768;2022-09-03T07:18:37;94574.72;;;18.57;73.17
10832;BME280;5469;48.574;8.768;2022-09-03T07:21:15;94567.81;;;18.56;73.97
10832;BME280;5469;48.574;8.768;2022-09-03T07:23:53;94567.28;;;18.84;72.92
10832;BME280;5469;48.574;8.768;2022-09-03T07:26:29;94556.75;;;18.91;72.18
10832;BME280;5469;48.574;8.768;2022-09-03T07:29:06;94547.88;;;18.99;71.17
10832;BME280;5469;48.574;8.768;2022-09-03T07:31:43;94561.81;;;18.92;72.00
10832;BME280;5469;48.574;8.768;2022-09-03T07:34:18;94570.81;;;18.75;72.87
10832;BME280;5469;48.574;8.768;2022-09-03T07:36:56;94565.03;;;18.86;72.47
10832;BME280;5469;48.574;8.768;2022-09-03T07:39:31;94567.75;;;18.98;72.85
10832;BME280;5469;48.574;8.768;2022-09-03T07:42:08;94571.78;;;19.50;70.62
10832;BME280;5469;48.574;8.768;2022-09-03T07:44:43;94570.75;;;19.42;69.95
10832;BME280;5469;48.574;8.768;2022-09-03T07:47:20;94576.28;;;19.46;71.64
10832;BME280;5469;48.574;8.768;2022-09-03T07:49:55;94573.72;;;19.86;69.20
10832;BME280;5469;48.574;8.768;2022-09-03T07:52:29;94578.22;;;19.82;69.11
10832;BME280;5469;48.574;8.768;2022-09-03T07:55:07;94574.53;;;20.39;68.94
10832;BME280;5469;48.574;8.768;2022-09-03T07:57:42;94572.59;;;20.52;67.23
10832;BME280;5469;48.574;8.768;2022-09-03T08:00:17;94575.91;;;21.02;65.86
10832;BME280;5469;48.574;8.768;2022-09-03T08:02:54;94577.13;;;21.04;64.66
10832;BME280;5469;48.574;8.768;2022-09-03T08:05:29;94577.91;;;20.77;65.46
10832;BME280;5469;48.574;8.768;2022-09-03T08:08:06;94579.69;;;20.85;64.74
10832;BME280;5469;48.574;8.768;2022-09-03T08:10:42;94583.63;;;21.03;63.61
10832;BME280;5469;48.574;8.768;2022-09-03T08:13:17;94582.78;;;20.71;64.43
10832;BME280;5469;48.574;8.768;2022-09-03T08:15:56;94577.84;;;20.73;65.11
10832;BME280;5469;48.574;8.768;2022-09-03T08:18:34;94575.50;;;20.59;64.90
10832;BME280;5469;48.574;8.768;2022-09-03T08:21:13;94586.44;;;20.26;66.95
10832;BME280;5469;48.574;8.768;2022-09-03T08:23:52;94583.41;;;20.27;66.54
10832;BME280;5469;48.574;8.768;2022-09-03T08:26:28;94583.66;;;20.22;66.72
10832;BME280;5469;48.574;8.768;2022-09-03T08:29:05;94590.09;;;20.05;67.05
10832;BME280;5469;48.574;8.768;2022-09-03T08:31:40;94588.66;;;20.36;66.54
10832;BME280;5469;48.574;8.768;2022-09-03T08:34:16;94591.69;;;20.47;65.81
10832;BME280;5469;48.574;8.768;2022-09-03T08:36:51;94588.78;;;21.08;64.49
10832;BME280;5469;48.574;8.768;2022-09-03T08:39:27;94594.53;;;21.83;62.26
10832;BME280;5469;48.574;8.768;2022-09-03T08:45:00;94612.19;;;22.47;58.03
10832;BME280;5469;48.574;8.768;2022-09-03T08:47:39;94601.53;;;22.54;57.80
10832;BME280;5469;48.574;8.768;2022-09-03T08:50:24;94611.53;;;22.18;57.66
10832;BME280;5469;48.574;8.768;2022-09-03T08:53:02;94614.00;;;22.23;58.21
10832;BME280;5469;48.574;8.768;2022-09-03T08:55:42;94620.09;;;22.56;58.11
10832;BME280;5469;48.574;8.768;2022-09-03T08:58:22;94612.03;;;22.40;57.10
10832;BME280;5469;48.574;8.768;2022-09-03T09:01:03;94616.06;;;22.85;56.83
10832;BME280;5469;48.574;8.768;2022-09-03T09:03:47;94613.19;;;22.58;57.12
10832;BME280;5469;48.574;8.768;2022-09-03T09:06:31;94616.22;;;22.37;57.90
10832;BME280;5469;48.574;8.768;2022-09-03T09:09:16;94614.06;;;22.62;57.73
10832;BME280;5469;48.574;8.768;2022-09-03T09:12:03;94617.91;;;22.81;56.75
10832;BME280;5469;48.574;8.768;2022-09-03T09:14:47;94607.22;;;23.04;55.88
10832;BME280;5469;48.574;8.768;2022-09-03T09:17:30;94607.06;;;22.97;55.73
10832;BME280;5469;48.574;8.768;2022-09-03T09:20:17;94613.94;;;22.94;56.00
10832;BME280;5469;48.574;8.768;2022-09-03T09:22:59;94607.84;;;22.97;55.96
10832;BME280;5469;48.574;8.768;2022-09-03T09:25:42;94612.56;;;22.84;56.01
10832;BME280;5469;48.574;8.768;2022-09-03T09:28:20;94607.66;;;22.90;55.89
10832;BME280;5469;48.574;8.768;2022-09-03T09:30:57;94612.84;;;22.79;55.86
10832;BME280;5469;48.574;8.768;2022-09-03T09:33:35;94612.84;;;22.79;55.78
10832;BME280;5469;48.574;8.768;2022-09-03T09:36:16;94615.66;;;23.02;55.19
10832;BME280;5469;48.574;8.768;2022-09-03T09:38:53;94626.28;;;23.34;54.84
10832;BME280;5469;48.574;8.768;2022-09-03T09:41:28;94629.28;;;23.29;54.17
10832;BME280;5469;48.574;8.768;2022-09-03T09:44:05;94633.84;;;23.67;54.40
10832;BME280;5469;48.574;8.768;2022-09-03T09:46:40;94624.56;;;24.14;52.82
10832;BME280;5469;48.574;8.768;2022-09-03T09:49:32;94629.16;;;24.60;52.66
10832;BME280;5469;48.574;8.768;2022-09-03T09:52:10;94622.66;;;25.69;52.38
10832;BME280;5469;48.574;8.768;2022-09-03T09:54:47;94616.81;;;26.08;48.26
10832;BME280;5469;48.574;8.768;2022-09-03T09:57:23;94616.94;;;25.41;49.33
10832;BME280;5469;48.574;8.768;2022-09-03T10:00:03;94603.16;;;26.53;48.81
10832;BME280;5469;48.574;8.768;2022-09-03T10:02:48;94596.59;;;28.06;45.43
10832;BME280;5469;48.574;8.768;2022-09-03T10:05:25;94595.78;;;27.77;44.65
10832;BME280;5469;48.574;8.768;2022-09-03T10:08:03;94613.00;;;25.76;47.35
10832;BME280;5469;48.574;8.768;2022-09-03T10:10:45;94603.28;;;26.78;46.84
10832;BME280;5469;48.574;8.768;2022-09-03T10:13:26;94609.91;;;26.22;47.81
10832;BME280;5469;48.574;8.768;2022-09-03T10:16:09;94621.91;;;25.72;48.45
10832;BME280;5469;48.574;8.768;2022-09-03T10:18:54;94622.38;;;25.41;48.39
10832;BME280;5469;48.574;8.768;2022-09-03T10:21:35;94616.94;;;25.41;48.95
10832;BME280;5469;48.574;8.768;2022-09-03T10:24:25;94612.69;;;25.06;50.38
10832;BME280;5469;48.574;8.768;2022-09-03T10:27:05;94606.34;;;24.95;49.85
10832;BME280;5469;48.574;8.768;2022-09-03T10:29:42;94617.56;;;24.36;51.71
10832;BME280;5469;48.574;8.768;2022-09-03T10:32:31;94605.38;;;24.23;51.53
10832;BME280;5469;48.574;8.768;2022-09-03T10:35:19;94596.72;;;24.14;52.82
10832;BME280;5469;48.574;8.768;2022-09-03T10:38:04;94603.25;;;23.86;54.28
10832;BME280;5469;48.574;8.768;2022-09-03T10:40:53;94610.06;;;23.76;55.28
10832;BME280;5469;48.574;8.768;2022-09-03T10:43:44;94611.69;;;23.81;54.68
10832;BME280;5469;48.574;8.768;2022-09-03T10:46:27;94611.16;;;23.52;56.32
10832;BME280;5469;48.574;8.768;2022-09-03T10:49:21;94614.06;;;23.40;56.39
10832;BME280;5469;48.574;8.768;2022-09-03T10:52:05;94629.94;;;22.29;59.85
10832;BME280;5469;48.574;8.768;2022-09-03T10:54:54;94640.22;;;21.31;66.88
10832;BME280;5469;48.574;8.768;2022-09-03T10:57:34;94624.78;;;20.47;72.80
10832;BME280;5469;48.574;8.768;2022-09-03T11:00:18;94617.16;;;21.62;70.20
10832;BME280;5469;48.574;8.768;2022-09-03T11:06:03;94615.38;;;21.10;69.48
10832;BME280;5469;48.574;8.768;2022-09-03T11:08:43;94613.88;;;21.25;70.05
10832;BME280;5469;48.574;8.768;2022-09-03T11:11:23;94608.34;;;21.49;68.63
10832;BME280;5469;48.574;8.768;2022-09-03T11:14:06;94605.81;;;21.41;66.21
10832;BME280;5469;48.574;8.768;2022-09-03T11:16:46;94612.41;;;20.71;73.42
10832;BME280;5469;48.574;8.768;2022-09-03T11:19:27;94603.47;;;21.55;69.05
10832;BME280;5469;48.574;8.768;2022-09-03T11:22:08;94605.66;;;21.65;68.06
10832;BME280;5469;48.574;8.768;2022-09-03T11:24:45;94601.03;;;21.81;67.93
10832;BME280;5469;48.574;8.768;2022-09-03T11:27:33;94620.63;;;21.19;71.21
10832;BME280;5469;48.574;8.768;2022-09-03T11:30:11;94647.00;;;20.20;75.06
10832;BME280;5469;48.574;8.768;2022-09-03T11:32:52;94674.19;;;18.61;82.94
10832;BME280;5469;48.574;8.768;2022-09-03T11:35:39;94648.09;;;17.34;91.80
10832;BME280;5469;48.574;8.768;2022-09-03T11:38:22;94644.06;;;18.04;84.71
10832;BME280;5469;48.574;8.768;2022-09-03T11:41:10;94664.03;;;17.86;83.77
10832;BME280;5469;48.574;8.768;2022-09-03T11:43:46;94722.06;;;16.43;86.81
10832;BME280;5469;48.574;8.768;2022-09-03T11:46:29;94707.75;;;16.47;91.75
10832;BME280;5469;48.574;8.768;2022-09-03T11:49:22;94705.28;;;16.77;96.42
10832;BME280;5469;48.574;8.768;2022-09-03T11:52:01;94697.63;;;17.66;88.67
10832;BME280;5469;48.574;8.768;2022-09-03T11:54:44;94682.09;;;17.98;88.42
10832;BME280;5469;48.574;8.768;2022-09-03T11:57:24;94669.31;;;18.03;87.66
10832;BME280;5469;48.574;8.768;2022-09-03T12:00:12;94659.28;;;17.27;93.70
10832;BME280;5469;48.574;8.768;2022-09-03T12:02:54;94659.25;;;17.44;94.15
10832;BME280;5469;48.574;8.768;2022-09-03T12:05:40;94655.78;;;17.35;93.17
10832;BME280;5469;48.574;8.768;2022-09-03T12:11:27;94670.53;;;18.36;83.49
10832;BME280;5469;48.574;8.768;2022-09-03T12:14:12;94673.03;;;17.64;88.81
10832;BME280;5469;48.574;8.768;2022-09-03T12:16:59;94669.66;;;18.52;83.74
10832;BME280;5469;48.574;8.768;2022-09-03T12:19:48;94671.53;;;18.82;84.61
10832;BME280;5469;48.574;8.768;2022-09-03T12:22:28;94663.13;;;19.04;80.50
10832;BME280;5469;48.574;8.768;2022-09-03T12:25:09;94666.72;;;19.41;82.16
10832;BME280;5469;48.574;8.768;2022-09-03T12:27:46;94670.91;;;19.51;79.15
10832;BME280;5469;48.574;8.768;2022-09-03T12:30:24;94672.97;;;19.67;80.75
10832;BME280;5469;48.574;8.768;2022-09-03T12:33:04;94671.22;;;19.83;79.94
10832;BME280;5469;48.574;8.768;2022-09-03T12:35:39;94664.03;;;19.99;82.01
10832;BME280;5469;48.574;8.768;2022-09-03T12:38:24;94663.59;;;20.22;82.29
10832;BME280;5469;48.574;8.768;2022-09-03T12:40:59;94667.84;;;20.23;85.04
10832;BME280;5469;48.574;8.768;2022-09-03T12:43:34;94666.50;;;20.29;80.26
10832;BME280;5469;48.574;8.768;2022-09-03T12:46:14;94666.84;;;19.45;85.99
10832;BME280;5469;48.574;8.768;2022-09-03T12:49:00;94677.00;;;19.06;90.75
10832;BME280;5469;48.574;8.768;2022-09-03T12:51:39;94674.13;;;18.90;89.99
10832;BME280;5469;48.574;8.768;2022-09-03T12:54:16;94669.97;;;19.47;87.03
10832;BME280;5469;48.574;8.768;2022-09-03T12:56:56;94673.25;;;19.98;86.07
10832;BME280;5469;48.574;8.768;2022-09-03T12:59:34;94678.16;;;19.51;84.88
10832;BME280;5469;48.574;8.768;2022-09-03T13:02:15;94682.88;;;19.99;89.38
10832;BME280;5469;48.574;8.768;2022-09-03T13:04:52;94684.22;;;20.05;90.09
10832;BME280;5469;48.574;8.768;2022-09-03T13:07:31;94686.28;;;21.26;85.44
10832;BME280;5469;48.574;8.768;2022-09-03T13:10:22;94691.59;;;20.70;83.00
10832;BME280;5469;48.574;8.768;2022-09-03T13:13:00;94692.88;;;20.60;83.49
10832;BME280;5469;48.574;8.768;2022-09-03T13:15:36;94680.41;;;20.31;87.81
10832;BME280;5469;48.574;8.768;2022-09-03T13:18:18;94674.56;;;19.92;82.14
10832;BME280;5469;48.574;8.768;2022-09-03T13:21:06;94685.78;;;20.68;87.54
10832;BME280;5469;48.574;8.768;2022-09-03T13:23:52;94697.00;;;20.45;83.89
10832;BME280;5469;48.574;8.768;2022-09-03T13:26:38;94691.63;;;21.83;83.44
10832;BME280;5469;48.574;8.768;2022-09-03T13:29:31;94689.47;;;21.88;79.92
10832;BME280;5469;48.574;8.768;2022-09-03T13:32:19;94684.53;;;21.46;85.32
10832;BME280;5469;48.574;8.768;2022-09-03T13:35:00;94679.31;;;20.97;78.27
10832;BME280;5469;48.574;8.768;2022-09-03T13:37:41;94687.97;;;21.91;75.76
10832;BME280;5469;48.574;8.768;2022-09-03T13:40:22;94679.31;;;23.81;77.49
10832;BME280;5469;48.574;8.768;2022-09-03T13:43:07;94681.44;;;24.41;72.41
10832;BME280;5469;48.574;8.768;2022-09-03T13:45:54;94677.97;;;24.94;79.20
10832;BME280;5469;48.574;8.768;2022-09-03T13:48:34;94669.81;;;25.54;75.77
10832;BME280;5469;48.574;8.768;2022-09-03T13:51:30;94658.97;;;27.13;68.19
10832;BME280;5469;48.574;8.768;2022-09-03T13:54:25;94648.88;;;26.44;65.23
10832;BME280;5469;48.574;8.768;2022-09-03T13:57:19;94645.97;;;26.74;66.24
10832;BME280;5469;48.574;8.768;2022-09-03T14:00:03;94631.16;;;26.61;59.52
10832;BME280;5469;48.574;8.768;2022-09-03T14:02:49;94649.47;;;24.47;63.92
10832;BME280;5469;48.574;8.768;2022-09-03T14:05:35;94643.38;;;24.30;70.64
10832;BME280;5469;48.574;8.768;2022-09-03T14:08:18;94633.44;;;23.88;65.03
10832;BME280;5469;48.574;8.768;2022-09-03T14:10:58;94639.69;;;24.42;65.11
10832;BME280;5469;48.574;8.768;2022-09-03T14:13:45;94637.09;;;25.06;62.31
10832;BME280;5469;48.574;8.768;2022-09-03T14:16:33;94638.50;;;24.13;63.55
10832;BME280;5469;48.574;8.768;2022-09-03T14:19:14;94640.38;;;23.43;65.38
10832;BME280;5469;48.574;8.768;2022-09-03T14:21:55;94634.69;;;23.29;66.16
10832;BME280;5469;48.574;8.768;2022-09-03T14:24:35;94634.34;;;23.30;66.50
10832;BME280;5469;48.574;8.768;2022-09-03T14:27:25;94633.56;;;22.91;65.73